• Join FlightAware (Why Join?)
  • Login
  • US Flag 
08:41PM EDT


 

Airport Tracker/Info


-or-


 

Live Flight TrackerFlight Track Log ✈ FDX1166 ✈ 10-Jul-2013 ✈ KAFW - KONT

Flight Track Log - Related Links

Times and Time Zones

All times are in EDT time to prevent confusion due to time zone crossing. See the FDX1166 flight status page for this flight to view local times or setup timezone preferences in your user account.

Time Position Orientation Groundspeed Altitude Reporting Facility
EDT Latitude Longitude Course Direction KTS MPH feet Rate Location/Type
04:19AM 32.9590 -97.3140 176° South 177 204 2,500  Level FlightAware
04:20AM 32.9210 -97.3310 201° Southwest 233 268 4,100 2,220 Climbing FlightAware
04:20AM 32.9160 -97.3460 248° West 255 293 4,600 3,000 Climbing FlightAware
04:20AM 32.9150 -97.3620 266° West 259 298 5,300 3,600 Climbing FlightAware
04:21AM 32.9130 -97.4040 267° West 271 312 7,000 3,600 Climbing FlightAware
04:21AM 32.9100 -97.4520 266° West 284 327 8,800 3,240 Climbing FlightAware
04:22AM 32.9040 -97.5220 264° West 312 359 11,000 2,400 Climbing FlightAware
04:23AM 32.9020 -97.5930 268° West 361 415 12,100 1,560 Climbing FlightAware
04:23AM 32.9110 -97.6690 278° West 402 463 13,000 2,520 Climbing FlightAware
04:24AM 32.9260 -97.7690 280° West 405 466 15,600 3,060 Climbing FlightAware
04:25AM 32.9360 -97.8520 278° West 419 482 17,200 2,820 Climbing FlightAware
04:25AM 32.9460 -97.9360 278° West 425 489 19,000 2,580 Climbing FlightAware
04:26AM 32.9580 -98.0320 278° West 435 501 20,600 2,280 Climbing FlightAware
04:27AM 32.9730 -98.1300 280° West 446 513 22,200 1,320 Climbing FlightAware
04:28AM 32.9850 -98.2310 278° West 448 516 22,600 2,220 Climbing FlightAware
04:28AM 33.0060 -98.3850 279° West 467 537 25,900 2,760 Climbing FlightAware
04:29AM 33.0220 -98.4980 280° West 476 548 27,200 1,140 Climbing FlightAware
04:30AM 33.0340 -98.5960 278° West 483 556 27,600 1,800 Climbing FlightAware
04:31AM 33.0520 -98.7370 279° West 487 560 30,000 2,700 Climbing FlightAware
04:31AM 33.0670 -98.8500 279° West 483 556 31,700 2,160 Climbing FlightAware
04:32AM 33.0830 -98.9680 279° West 482 555 33,200 1,980 Climbing FlightAware
04:33AM 33.0960 -99.0680 279° West 480 552 34,500 2,040 Climbing FlightAware
04:34AM 33.1140 -99.2060 279° West 475 547 36,300 1,920 Climbing FlightAware
04:34AM 33.1260 -99.3060 278° West 472 543 37,500 1,680 Climbing FlightAware
04:35AM 33.1400 -99.4120 279° West 470 541 38,600 1,500 Climbing FlightAware
04:36AM 33.1530 -99.5240 278° West 464 534 39,600 960 Climbing FlightAware
04:36AM 33.1670 -99.6290 279° West 460 529 40,000 300 Climbing FlightAware
04:37AM 33.1780 -99.7220 278° West 458 527 40,000  Level FlightAware
04:38AM 33.1930 -99.8450 278° West 459 528 40,000  Level FlightAware
04:39AM 33.2070 -99.9630 278° West 462 532 40,000  Level FlightAware
04:40AM 33.2240 -100.1030 278° West 462 532 40,000  Level FlightAware
04:40AM 33.2300 -100.1550 278° West 462 532 40,000  Level FlightAware
04:41AM 33.2420 -100.2600 278° West 462 532 40,000  Level FlightAware
04:41AM 33.2590 -100.3950 279° West 469 540 40,000  Level FlightAware
04:42AM 33.2690 -100.4900 277° West 469 540 40,000  Level FlightAware
04:43AM 33.2800 -100.5950 277° West 469 540 40,000  Level FlightAware
04:44AM 33.2880 -100.6740 277° West 469 540 40,000  Level FlightAware
04:44AM 33.2990 -100.7790 277° West 469 540 40,000  Level FlightAware
04:45AM 33.3070 -100.8630 277° West 469 540 40,000  Level FlightAware
04:46AM 33.3160 -100.9460 277° West 469 540 40,000  Level FlightAware
04:46AM 33.3240 -101.0250 277° West 469 540 40,000  Level FlightAware
04:47AM 33.3340 -101.1300 277° West 469 540 40,000  Level FlightAware
04:48AM 33.3450 -101.2350 277° West 469 540 40,000  Level FlightAware
04:49AM 33.3610 -101.3930 277° West 469 540 40,000  Level FlightAware
04:50AM 33.3700 -101.4740 278° West 469 540 40,000  Level FlightAware
04:50AM 33.3810 -101.5810 277° West 469 540 40,000  Level FlightAware
04:51AM 33.3890 -101.6600 277° West 469 540 40,000  Level FlightAware
04:52AM 33.4289 -101.9297 277° West 466 536 40,000  Level Albuquerque Center
04:53AM 33.4450 -102.0842 277° West 468 539 40,000  Level Albuquerque Center
04:54AM 33.4606 -102.2383 277° West 469 540 40,000  Level Albuquerque Center
04:55AM 33.4769 -102.3922 277° West 469 540 40,000  Level Albuquerque Center
04:56AM 33.4919 -102.5458 277° West 467 537 40,000  Level Albuquerque Center
04:57AM 33.5081 -102.6983 277° West 467 537 40,000  Level Albuquerque Center
04:58AM 33.5222 -102.8553 276° West 471 542 40,000  Level Albuquerque Center
04:59AM 33.5369 -103.0094 277° West 470 541 40,000  Level Albuquerque Center
05:00AM 33.5517 -103.1644 277° West 470 541 40,000  Level Albuquerque Center
05:01AM 33.5656 -103.3197 276° West 472 543 40,000  Level Albuquerque Center
05:02AM 33.5811 -103.5086 276° West 474 545 40,000  Level Albuquerque Center
05:03AM 33.5953 -103.6625 276° West 470 541 40,000  Level Albuquerque Center
05:04AM 33.6119 -103.8203 277° West 469 540 40,000  Level Albuquerque Center
05:05AM 33.6247 -103.9747 276° West 468 539 40,000  Level Albuquerque Center
05:06AM 33.6392 -104.1286 276° West 467 537 40,000  Level Albuquerque Center
05:07AM 33.6522 -104.2825 276° West 466 536 40,000  Level Albuquerque Center
05:08AM 33.6650 -104.4358 276° West 466 536 40,000  Level Albuquerque Center
05:09AM 33.6775 -104.5897 276° West 466 536 40,000  Level Albuquerque Center
05:10AM 33.6897 -104.7436 275° West 466 536 40,000  Level Albuquerque Center
05:11AM 33.7017 -104.8964 275° West 464 534 40,000  Level Albuquerque Center
05:12AM 33.7131 -105.0497 275° West 462 532 40,000  Level Albuquerque Center
05:13AM 33.7242 -105.2025 275° West 462 532 40,000  Level Albuquerque Center
05:14AM 33.7383 -105.3664 276° West 463 533 40,000  Level Albuquerque Center
05:15AM 33.7494 -105.5192 275° West 461 531 40,000  Level Albuquerque Center
05:16AM 33.7614 -105.6681 276° West 465 535 40,000  Level Albuquerque Center
05:17AM 33.7725 -105.8228 275° West 462 532 40,000  Level Albuquerque Center
05:18AM 33.7828 -105.9706 275° West 457 526 40,000  Level Albuquerque Center
05:19AM 33.7933 -106.1228 275° West 458 527 40,000  Level Albuquerque Center
05:20AM 33.8036 -106.2750 275° West 457 526 40,000  Level Albuquerque Center
05:21AM 33.8150 -106.4292 275° West 462 532 40,000  Level Albuquerque Center
05:22AM 33.8233 -106.5772 274° West 457 526 40,000  Level Albuquerque Center
05:23AM 33.8339 -106.7289 275° West 456 525 40,000  Level Albuquerque Center
05:24AM 33.8433 -106.8808 274° West 457 526 40,000  Level Albuquerque Center
05:25AM 33.8533 -107.0353 275° West 463 533 40,000  Level Albuquerque Center
05:26AM 33.8625 -107.1886 274° West 463 533 40,000  Level Albuquerque Center
05:27AM 33.8717 -107.3414 274° West 462 532 40,000  Level Albuquerque Center
05:28AM 33.8797 -107.4942 274° West 461 531 40,000  Level Albuquerque Center
05:29AM 33.8892 -107.6469 274° West 460 529 40,000  Level Albuquerque Center
05:30AM 33.8975 -107.7983 274° West 458 527 40,000  Level Albuquerque Center
05:31AM 33.9064 -107.9511 274° West 459 528 40,000  Level Albuquerque Center
05:32AM 33.9144 -108.1028 274° West 458 527 40,000  Level Albuquerque Center
05:33AM 33.9231 -108.2522 274° West 453 521 40,000  Level Albuquerque Center
05:34AM 33.9317 -108.4033 274° West 452 520 40,000  Level Albuquerque Center
05:35AM 33.9394 -108.5675 273° West 461 531 40,000  Level Albuquerque Center
05:36AM 33.9475 -108.7400 273° West 461 531 40,000  Level Albuquerque Center
05:41AM 33.9840 -109.5320 273° West 469 540 40,000  Level FlightAware
05:42AM 33.9880 -109.6370 273° West 469 540 40,000  Level FlightAware
05:42AM 33.9910 -109.7250 272° West 468 539 40,000  Level FlightAware
05:43AM 33.9950 -109.8290 273° West 467 537 40,000  Level FlightAware
05:44AM 33.9970 -109.9090 272° West 467 537 40,000  Level FlightAware
05:44AM 34.0050 -110.0640 274° West 463 533 40,000  Level FlightAware
05:44AM 34.0050 -110.0800 270° West 463 533 40,000  Level FlightAware
05:47AM 34.0130 -110.3660 272° West 463 533 40,000  Level FlightAware
05:47AM 34.0190 -110.4770 274° West 459 528 40,000  Level FlightAware
05:48AM 34.0240 -110.6270 272° West 460 529 40,000  Level FlightAware
05:49AM 34.0280 -110.7450 272° West 460 529 40,000  Level FlightAware
05:49AM 34.0310 -110.8460 272° West 461 531 40,000  Level FlightAware
05:50AM 34.0350 -110.9560 273° West 461 531 40,000  Level FlightAware
05:51AM 34.0380 -111.0560 272° West 461 531 40,000  Level FlightAware
05:51AM 34.0400 -111.1480 272° West 460 529 40,000  Level FlightAware
05:52AM 34.0440 -111.2630 272° West 460 529 40,000  Level FlightAware
05:53AM 34.0460 -111.3520 272° West 458 527 40,000  Level FlightAware
05:53AM 34.0490 -111.4670 272° West 455 524 40,000  Level FlightAware
05:54AM 34.0520 -111.5780 272° West 452 520 40,000  Level FlightAware
05:55AM 34.0550 -111.6860 272° West 450 518 40,000  Level FlightAware
05:56AM 34.0570 -111.7830 271° West 449 517 40,000  Level FlightAware
05:56AM 34.0590 -111.8810 271° West 449 517 40,000  Level FlightAware
05:57AM 34.0610 -111.9810 271° West 448 516 40,000  Level FlightAware
05:57AM 34.0630 -112.0700 272° West 448 516 40,000  Level FlightAware
05:58AM 34.0650 -112.1680 271° West 448 516 40,000  Level FlightAware
05:59AM 34.0670 -112.2770 271° West 449 517 40,000  Level FlightAware
06:00AM 34.0690 -112.3780 271° West 450 518 40,000  Level FlightAware
06:00AM 34.0710 -112.4880 271° West 451 519 40,000  Level FlightAware
06:01AM 34.0730 -112.5910 271° West 452 520 40,000  Level FlightAware
06:02AM 34.0750 -112.7020 271° West 453 521 40,000  Level FlightAware
06:02AM 34.0770 -112.8030 271° West 453 521 40,000  Level FlightAware
06:03AM 34.0780 -112.9140 271° West 453 521 40,000  Level FlightAware
06:04AM 34.0800 -113.0170 271° West 454 522 40,000  Level FlightAware
06:04AM 34.0810 -113.1160 271° West 454 522 40,000  Level FlightAware
06:05AM 34.0820 -113.2300 271° West 454 522 40,000  Level FlightAware
06:06AM 34.0830 -113.3380 271° West 454 522 40,000  Level FlightAware
06:07AM 34.0850 -113.4420 271° West 453 521 40,000  Level FlightAware
06:07AM 34.0860 -113.5450 271° West 454 522 40,000  Level FlightAware
06:08AM 34.0860 -113.6520 270° West 454 522 40,000  Level FlightAware
06:09AM 34.0870 -113.7480 271° West 454 522 40,000  Level FlightAware
06:09AM 34.0880 -113.8690 271° West 455 524 40,000  Level FlightAware
06:10AM 34.0880 -113.9630 270° West 455 524 40,000  Level FlightAware
06:11AM 34.0800 -114.1250 267° West 454 522 40,000  Level FlightAware
06:12AM 34.0720 -114.2560 266° West 454 522 40,000  Level FlightAware
06:13AM 34.0660 -114.3620 266° West 454 522 40,000  Level FlightAware
06:13AM 34.0590 -114.4700 266° West 453 521 40,000  Level FlightAware
06:14AM 34.0530 -114.5610 265° West 452 520 40,000  Level FlightAware
06:15AM 34.0400 -114.7590 266° West 450 518 40,000  Level FlightAware
06:17AM 34.0260 -114.9400 265° West 450 518 40,000  Level FlightAware
06:18AM 34.0160 -115.0780 265° West 450 518 40,000  Level FlightAware
06:19AM 34.0100 -115.2210 267° West 448 516 40,000  Level FlightAware
06:19AM 34.0010 -115.3660 266° West 449 517 40,000  Level FlightAware
06:20AM 33.9940 -115.4500 264° West 449 517 40,000  Level FlightAware
06:21AM 33.9880 -115.5450 266° West 449 517 40,000  Level FlightAware
06:21AM 33.9820 -115.6210 265° West 449 517 40,000  Level FlightAware
06:22AM 33.9750 -115.7230 265° West 449 517 40,000 -4,020 Level FlightAware
06:23AM 33.9630 -115.8940 265° West 464 534 33,600 -4,380 Descending FlightAware
06:24AM 33.9550 -115.9810 264° West 464 534 33,600  Level FlightAware
06:24AM 33.9460 -116.0860 264° West 464 534 33,600 -4,440 Level FlightAware
06:25AM 33.9370 -116.2400 266° West 483 556 26,500 -6,180 Descending FlightAware
06:26AM 33.9270 -116.3710 265° West 479 551 23,700 -1,980 Descending FlightAware
06:27AM 33.9200 -116.4520 264° West 479 551 23,700  Level FlightAware
06:27AM 33.9120 -116.5330 263° West 479 551 23,700  Level FlightAware
06:28AM 33.9030 -116.6420 264° West 479 551 23,700 -5,280 Level FlightAware
06:29AM 33.8920 -116.8170 266° West 398 458 14,000 -4,320 Descending FlightAware
06:30AM 33.9040 -116.9430 277° West 321 369 13,400 -1,200 Descending FlightAware
06:31AM 33.9320 -117.0210 293° West 298 343 11,700 -2,580 Descending FlightAware
06:32AM 33.9600 -117.0990 293° West 285 328 9,700 -2,400 Descending FlightAware
06:32AM 33.9680 -117.1190 296° West 280 322 9,100 -1,920 Descending FlightAware
06:33AM 33.9910 -117.1830 293° West 278 320 7,900 -1,740 Descending FlightAware
06:33AM 34.0060 -117.2260 293° West 259 298 7,100 -1,500 Descending FlightAware
06:34AM 34.0190 -117.2620 294° West 246 283 6,500 -1,320 Descending FlightAware
06:34AM 34.0310 -117.2950 294° West 227 261 5,900 -1,560 Descending FlightAware
06:35AM 34.0420 -117.3270 293° West 221 254 5,100 -1,620 Descending FlightAware
06:35AM 34.0510 -117.3540 292° West 218 251 4,500 -1,080 Descending FlightAware
06:35AM 34.0550 -117.3850 279° West 218 251 4,200 -1,140 Descending FlightAware
06:36AM 34.0540 -117.4250 268° West 197 227 3,400 -720 Descending FlightAware
06:37AM 34.0540 -117.4530 270° West 195 224 3,400 7,680 Level FlightAware
06:38AM 33.9080 -116.6230 102° East 439 505 17,200 7,320 Climbing FlightAware
06:38AM 33.9010 -116.7030 264° West 439 505 17,200  Level FlightAware
06:39AM 33.8920 -116.8050 264° West 439 505 17,200  Level FlightAware
06:40AM 33.8850 -116.8810 264° West 439 505 17,200  Level FlightAware
06:41AM 33.8760 -116.9810 264° West 439 505 17,200  Level FlightAware
06:41AM 33.8700 -117.0550 264° West 439 505 17,200  Level FlightAware
06:47AM 34.0500 -117.6000 281° West  Level FlightAware Approximate
06:48AM 34.0560 -117.6012 281° West  Level Estimated